Time;durP1;ratioP1;P1;durP2;ratioP2;P2;SDS_P1;SDS_P2;PMS_P1;PMS_P2;Temp;Humidity;BMP_temperature;BMP_pressure;BME280_temperature;BME280_humidity;BME280_pressure;Samples;Min_cycle;Max_cycle;Signal;HPM_P1;HPM_P2
2022/09/29 00:00:25;;;;;;;5.72;5.22;;;;;;;14.57;57.24;98523.03;2258291;86;25889;-80
2022/09/29 00:04:14;;;;;;;5.05;4.60;;;;;;;14.49;57.33;98521.87;2271531;86;25734;-77
2022/09/29 00:08:22;;;;;;;4.80;4.37;;;;;;;14.44;57.48;98520.23;2268614;84;25311;-77
2022/09/29 00:12:03;;;;;;;5.22;4.80;;;;;;;14.35;57.62;98517.38;2256420;85;25840;-80
2022/09/29 00:15:34;;;;;;;5.35;4.55;;;;;;;14.25;57.74;98517.16;2248833;87;25703;-81
2022/09/29 00:19:09;;;;;;;4.47;4.10;;;;;;;14.21;57.83;98520.72;2252719;86;25722;-81
2022/09/29 00:22:50;;;;;;;4.67;4.20;;;;;;;14.15;57.88;98510.80;2149391;90;25833;-81
2022/09/29 00:26:26;;;;;;;3.98;3.67;;;;;;;14.08;58.04;98514.44;2116635;91;25323;-81
2022/09/29 00:30:03;;;;;;;3.77;3.47;;;;;;;14.05;58.10;98507.95;2112739;91;25809;-82
2022/09/29 00:33:44;;;;;;;4.00;3.62;;;;;;;14.08;58.16;98514.89;2023621;96;25847;-81
2022/09/29 00:37:18;;;;;;;4.80;4.37;;;;;;;14.08;58.16;98522.75;2021043;97;25749;-83
2022/09/29 00:40:53;;;;;;;4.55;4.15;;;;;;;14.10;58.16;98513.08;1989009;97;25904;-81
2022/09/29 00:44:41;;;;;;;6.62;3.42;;;;;;;14.08;58.15;98518.37;2044793;94;26283;-81
2022/09/29 00:48:17;;;;;;;;;;;;;;;14.07;58.13;98521.00;2064510;94;25820;-81
2022/09/29 00:52:02;;;;;;;4.25;3.65;;;;;;;14.08;58.19;98524.92;2086978;93;26054;-77
2022/09/29 00:55:30;;;;;;;3.87;3.58;;;;;;;14.14;58.09;98522.60;2063008;94;25850;-80
2022/09/29 00:58:57;;;;;;;3.77;3.47;;;;;;;14.23;57.94;98522.42;2062825;94;25877;-81
2022/09/29 01:02:24;;;;;;;4.60;4.20;;;;;;;14.23;57.82;98528.11;2062360;94;25728;-82
2022/09/29 01:05:52;;;;;;;3.50;3.20;;;;;;;14.21;57.79;98523.34;2012040;96;25496;-82
2022/09/29 01:09:26;;;;;;;3.62;3.33;;;;;;;14.19;57.76;98528.63;1990142;98;25968;-81
2022/09/29 01:13:09;;;;;;;;;;;;;;;;;;;;;
2022/09/29 01:16:33;;;;;;;5.08;3.22;;;;;;;14.15;57.80;98536.14;1934100;100;25910;-81
2022/09/29 01:20:25;;;;;;;7.25;2.90;;;;;;;14.17;57.73;98535.22;1927408;100;25978;-80
2022/09/29 01:24:12;;;;;;;3.83;3.52;;;;;;;14.15;57.70;98547.48;1925445;101;25874;-82
2022/09/29 01:28:15;;;;;;;3.87;3.58;;;;;;;14.12;57.73;98542.75;1924971;101;26004;-81
2022/09/29 01:32:19;;;;;;;4.50;3.72;;;;;;;14.07;57.71;98545.48;1919787;100;25823;-82
2022/09/29 01:36:24;;;;;;;4.67;3.50;;;;;;;14.04;57.79;98550.77;1972003;99;26132;-82
2022/09/29 01:40:13;;;;;;;3.75;3.45;;;;;;;14.07;57.77;98554.64;1967615;98;25548;-79
2022/09/29 01:44:00;;;;;;;3.53;3.23;;;;;;;14.06;57.69;98548.97;1966423;98;25675;-80
2022/09/29 01:47:52;;;;;;;3.67;2.87;;;;;;;14.07;57.73;98554.64;1970192;98;25783;-81
2022/09/29 01:51:24;;;;;;;3.20;2.90;;;;;;;14.10;57.67;98558.94;1899338;100;26039;-81
2022/09/29 01:58:43;;;;;;;4.97;3.10;;;;;;;14.10;57.55;98559.80;1895862;103;25958;-82
2022/09/29 02:02:35;;;;;;;5.72;3.70;;;;;;;14.10;57.50;98558.94;1834549;104;25858;-81
2022/09/29 02:06:06;;;;;;;10.38;4.17;;;;;;;14.12;57.47;98562.41;1820044;107;25938;-81
2022/09/29 02:09:51;;;;;;;;;;;;;;;;;;;;;
2022/09/29 02:13:09;;;;;;;3.00;2.62;;;;;;;14.17;57.36;98564.47;1879308;103;25884;-81
2022/09/29 02:16:41;;;;;;;4.10;3.80;;;;;;;14.14;57.29;98565.84;1903856;103;25738;-81
2022/09/29 02:20:21;;;;;;;;;;;;;;;;;;;;;
2022/09/29 02:23:35;;;;;;;3.00;2.70;;;;;;;14.14;57.21;98571.97;1871206;101;25449;-81
2022/09/29 02:26:59;;;;;;;5.62;3.75;;;;;;;14.07;57.20;98574.30;1920538;101;31711;-82
2022/09/29 02:30:20;;;;;;;3.55;3.25;;;;;;;14.09;57.23;98589.97;1928591;101;26130;-81
2022/09/29 02:33:40;;;;;;;3.40;2.92;;;;;;;14.11;57.15;98582.50;1919609;101;31992;-81
2022/09/29 02:37:37;;;;;;;4.17;3.50;;;;;;;14.08;57.17;98585.63;1917783;101;28133;-81
2022/09/29 02:41:21;;;;;;;3.22;2.92;;;;;;;14.08;57.12;98587.80;2057340;95;25832;-82
2022/09/29 02:45:14;;;;;;;;;;;;;;;14.03;57.17;98591.39;2089290;93;25836;-82
2022/09/29 02:49:32;;;;;;;3.90;3.45;;;;;;;13.98;57.23;98598.05;2054209;95;26077;-82
2022/09/29 02:53:49;;;;;;;4.25;3.10;;;;;;;13.86;57.29;98600.42;2017045;96;34807;-80
2022/09/29 02:57:38;;;;;;;7.25;3.92;;;;;;;13.79;57.41;98606.67;2208900;88;25771;-80
2022/09/29 03:01:13;;;;;;;4.05;3.58;;;;;;;13.67;57.41;98618.69;2210360;88;25728;-76
2022/09/29 03:04:42;;;;;;;5.12;3.80;;;;;;;13.54;57.55;98618.47;2206146;88;25613;-81
2022/09/29 03:08:04;;;;;;;5.53;3.47;;;;;;;13.50;57.67;98610.23;2210413;88;30930;-80
2022/09/29 03:11:27;;;;;;;5.45;3.27;;;;;;;13.55;57.60;98604.48;2216131;88;25933;-83
2022/09/29 03:14:48;;;;;;;4.03;3.40;;;;;;;13.61;57.59;98613.10;2216178;88;25855;-80
2022/09/29 03:18:17;;;;;;;3.08;2.77;;;;;;;13.66;57.46;98618.25;2212717;88;25882;-81
2022/09/29 03:21:43;;;;;;;4.17;3.40;;;;;;;13.75;57.40;98625.09;2209256;88;25709;-81
2022/09/29 03:25:17;;;;;;;3.55;3.25;;;;;;;13.76;57.22;98630.29;2210604;88;25853;-79
2022/09/29 03:29:03;;;;;;;4.33;3.33;;;;;;;13.73;57.11;98637.33;2214534;88;25722;-82
2022/09/29 03:32:36;;;;;;;2.87;2.67;;;;;;;13.65;57.09;98648.81;2162657;88;25776;-82
2022/09/29 03:36:10;;;;;;;3.45;2.83;;;;;;;13.56;57.08;98639.78;2214487;87;25708;-80
2022/09/29 03:39:34;;;;;;;3.62;3.30;;;;;;;13.51;57.14;98642.08;2215257;87;25667;-80
2022/09/29 03:42:57;;;;;;;4.85;2.80;;;;;;;13.50;57.11;98631.16;2213289;88;25341;-80
2022/09/29 03:46:24;;;;;;;3.92;3.22;;;;;;;13.45;57.16;98632.56;2270080;85;25922;-81
2022/09/29 03:49:45;;;;;;;2.65;2.45;;;;;;;13.42;57.20;98639.16;2279197;85;25631;-82
2022/09/29 03:53:11;;;;;;;3.27;2.98;;;;;;;13.41;57.26;98643.53;2256715;87;31496;-79
2022/09/29 03:56:56;;;;;;;;;;;;;;;;;;;;;
2022/09/29 04:00:17;;;;;;;4.92;3.20;;;;;;;13.38;57.25;98646.64;2252297;87;25756;-82
2022/09/29 04:03:45;;;;;;;3.47;3.17;;;;;;;13.33;57.28;98654.58;2231299;87;25734;-82
2022/09/29 04:07:10;;;;;;;3.20;2.90;;;;;;;13.29;57.33;98645.02;2252258;86;25901;-82
2022/09/29 04:10:43;;;;;;;3.80;3.08;;;;;;;13.29;57.35;98638.92;2330880;84;26378;-82
2022/09/29 04:14:16;;;;;;;3.42;3.12;;;;;;;13.25;57.35;98639.41;2316560;83;25801;-82
2022/09/29 04:17:56;;;;;;;3.98;3.15;;;;;;;13.20;57.41;98635.98;2329483;84;25810;-81
2022/09/29 04:21:21;;;;;;;3.20;2.90;;;;;;;13.22;57.46;98638.11;2325466;83;25819;-80
2022/09/29 04:24:59;;;;;;;5.33;3.05;;;;;;;13.21;57.43;98637.25;2330393;83;25711;-81
2022/09/29 04:28:20;;;;;;;3.77;3.45;;;;;;;13.20;57.49;98647.31;2329201;83;25821;-81
2022/09/29 04:31:46;;;;;;;4.25;3.17;;;;;;;13.27;57.55;98653.35;2329075;83;25743;-81
2022/09/29 04:35:20;;;;;;;3.02;2.83;;;;;;;13.32;57.42;98657.19;2329537;84;26214;-82
2022/09/29 04:38:44;;;;;;;3.22;2.92;;;;;;;13.35;57.32;98659.31;2345400;83;25690;-81
2022/09/29 04:42:19;;;;;;;3.17;2.95;;;;;;;13.39;57.27;98666.68;2359165;82;25772;-82
2022/09/29 04:49:30;;;;;;;3.87;3.50;;;;;;;13.42;57.21;98670.56;2336438;84;25642;-81
2022/09/29 04:52:51;;;;;;;3.50;3.30;;;;;;;13.38;57.19;98676.28;2332178;83;25653;-82
2022/09/29 04:56:22;;;;;;;4.40;3.52;;;;;;;13.38;57.25;98676.28;2336043;84;25670;-81
2022/09/29 04:59:56;;;;;;;3.25;2.95;;;;;;;13.43;57.22;98681.44;2335085;83;26050;-79
2022/09/29 05:03:22;;;;;;;3.20;3.00;;;;;;;13.45;57.21;98672.69;2335998;83;25659;-81
2022/09/29 05:06:55;;;;;;;3.25;2.95;;;;;;;13.46;57.21;98674.86;2332733;84;25902;-82
2022/09/29 05:10:20;;;;;;;3.75;3.45;;;;;;;13.50;57.20;98678.28;2308676;84;25730;-79
2022/09/29 05:14:08;;;;;;;4.28;3.58;;;;;;;13.53;57.17;98674.31;2311974;83;25867;-80
2022/09/29 05:17:39;;;;;;;4.20;3.90;;;;;;;13.53;57.12;98675.17;2341327;83;25871;-81
2022/09/29 05:21:20;;;;;;;3.90;3.60;;;;;;;13.53;57.11;98690.87;2388976;81;25729;-76
2022/09/29 05:25:03;;;;;;;4.17;3.87;;;;;;;13.56;57.14;98696.52;2361059;83;25767;-80
2022/09/29 05:28:48;;;;;;;4.03;3.62;;;;;;;13.56;57.16;98703.06;2341174;83;25732;-83
2022/09/29 05:32:04;;;;;;;7.60;4.00;;;;;;;13.55;57.17;98702.66;2332294;83;25638;-83
2022/09/29 05:35:44;;;;;;;4.80;4.42;;;;;;;13.55;57.18;98712.68;2358794;82;25598;-85
2022/09/29 05:39:33;;;;;;;5.35;4.92;;;;;;;13.54;57.25;98716.20;2363823;82;25719;-80
2022/09/29 05:43:04;;;;;;;4.83;4.42;;;;;;;13.54;57.27;98719.27;2362542;83;25723;-81
2022/09/29 05:46:40;;;;;;;4.30;3.98;;;;;;;13.52;57.32;98727.13;2364515;82;25698;-87
2022/09/29 05:50:12;;;;;;;4.67;4.28;;;;;;;13.55;57.41;98724.91;2256567;86;25835;-83
2022/09/29 05:54:10;;;;;;;4.37;4.05;;;;;;;13.61;57.35;98727.00;2258622;86;25786;-80
2022/09/29 05:57:41;;;;;;;5.37;4.87;;;;;;;13.63;57.36;98725.64;2235838;86;26717;-78
2022/09/29 06:01:23;;;;;;;4.45;4.05;;;;;;;13.69;57.35;98734.27;2257282;86;25692;-83
2022/09/29 06:04:52;;;;;;;3.95;3.65;;;;;;;13.76;57.22;98735.05;2257235;86;25791;-85
2022/09/29 06:08:16;;;;;;;4.78;4.15;;;;;;;13.81;57.22;98744.16;2253393;86;26223;-84
2022/09/29 06:11:36;;;;;;;4.60;3.65;;;;;;;13.83;57.17;98738.44;2231588;86;25768;-86
2022/09/29 06:15:12;;;;;;;5.17;4.25;;;;;;;13.88;57.13;98737.94;2256750;86;30983;-86
2022/09/29 06:18:35;;;;;;;4.47;4.03;;;;;;;13.94;57.03;98740.45;2180851;89;25931;-83
2022/09/29 06:21:56;;;;;;;4.00;3.70;;;;;;;13.97;56.96;98750.86;2182463;89;25842;-85
2022/09/29 06:25:31;;;;;;;3.62;3.33;;;;;;;14.03;56.95;98756.00;2181302;89;31111;-87
2022/09/29 06:29:03;;;;;;;8.68;3.50;;;;;;;14.00;56.81;98743.40;2182813;89;25756;-77
2022/09/29 06:32:36;;;;;;;3.65;3.35;;;;;;;14.14;56.71;98763.68;2181681;89;25719;-85
2022/09/29 06:40:10;;;;;;;8.50;3.15;;;;;;;14.19;56.56;98769.72;2123048;91;25909;-83
2022/09/29 06:43:58;;;;;;;16.60;5.10;;;;;;;14.50;58.10;98774.02;2122258;91;25856;-80
2022/09/29 06:47:22;;;;;;;4.83;4.42;;;;;;;14.68;57.51;98774.56;2150405;88;25896;-84
2022/09/29 06:50:50;;;;;;;5.50;3.90;;;;;;;14.53;57.02;98770.03;2042060;95;26373;-79
2022/09/29 06:54:25;;;;;;;5.03;4.62;;;;;;;14.56;57.28;98771.73;2059666;93;25787;-83
2022/09/29 06:58:19;;;;;;;4.60;4.20;;;;;;;14.49;57.00;98776.19;2068843;94;25983;-78
2022/09/29 07:01:58;;;;;;;4.20;3.87;;;;;;;14.48;57.02;98786.27;2027650;96;25703;-75
2022/09/29 07:05:29;;;;;;;3.83;3.47;;;;;;;14.62;56.98;98801.34;2024931;96;25805;-74
2022/09/29 07:08:59;;;;;;;3.22;2.92;;;;;;;14.68;56.91;98802.10;2033282;95;25995;-75
2022/09/29 07:12:29;;;;;;;4.60;4.30;;;;;;;14.74;56.81;98800.23;2027275;94;25864;-83
2022/09/29 07:16:22;;;;;;;;;;;;;;;;;;;;;
2022/09/29 07:19:52;;;;;;;4.12;3.70;;;;;;;14.61;56.50;98807.91;1973789;99;25797;-79
2022/09/29 07:23:28;;;;;;;4.15;3.85;;;;;;;14.65;56.38;98817.47;1976840;98;25845;-79
2022/09/29 07:27:04;;;;;;;3.50;3.20;;;;;;;14.51;56.17;98812.47;2007224;98;25732;-80
2022/09/29 07:30:38;;;;;;;3.70;3.40;;;;;;;14.45;56.37;98820.41;1977356;98;25907;-80
2022/09/29 07:34:04;;;;;;;3.90;3.60;;;;;;;14.36;56.20;98822.72;1991256;97;25899;-78
2022/09/29 07:37:39;;;;;;;4.12;3.83;;;;;;;14.40;56.36;98823.53;1988200;97;25811;-76
2022/09/29 07:41:10;;;;;;;3.80;3.60;;;;;;;14.42;56.30;98829.63;1953980;96;25895;-82
2022/09/29 07:44:39;;;;;;;3.70;3.50;;;;;;;14.46;56.18;98842.24;1997865;97;25820;-78
2022/09/29 07:48:14;;;;;;;4.42;4.05;;;;;;;14.50;55.98;98836.94;2029277;96;25895;-84
2022/09/29 07:51:46;;;;;;;4.28;3.92;;;;;;;14.35;55.79;98847.22;2028528;96;25710;-79
2022/09/29 07:55:22;;;;;;;3.50;2.15;;;;;;;14.26;56.04;98849.12;2033757;95;25393;-76
2022/09/29 07:59:02;;;;;;;2.65;2.30;;;;;;;14.59;58.09;98851.67;2045071;94;25941;-81
2022/09/29 08:02:31;;;;;;;3.12;2.92;;;;;;;15.25;57.97;98851.75;1990853;97;25921;-79
2022/09/29 08:05:58;;;;;;;3.72;3.17;;;;;;;15.70;57.63;98853.05;1995371;95;25723;-80
2022/09/29 08:09:32;;;;;;;3.35;3.05;;;;;;;15.87;56.38;98857.48;1957847;100;25965;-78
2022/09/29 08:13:13;;;;;;;;;;;;;;;;;;;;;
2022/09/29 08:16:38;;;;;;;3.90;2.63;;;;;;;16.43;55.23;98857.91;2027134;96;25801;-79
2022/09/29 08:20:09;;;;;;;2.52;2.33;;;;;;;16.61;54.74;98872.84;2049876;95;25919;-80
2022/09/29 08:23:50;;;;;;;2.22;2.05;;;;;;;16.67;54.49;98875.30;2038124;95;25794;-80
2022/09/29 08:27:20;;;;;;;2.65;2.45;;;;;;;16.88;54.27;98878.75;2034728;95;25833;-80
2022/09/29 08:30:57;;;;;;;3.05;2.85;;;;;;;17.29;53.86;98878.09;2047628;95;25852;-81
2022/09/29 08:34:40;;;;;;;3.05;2.85;;;;;;;17.53;52.79;98884.89;2039629;94;25781;-79
2022/09/29 08:38:13;;;;;;;2.72;2.52;;;;;;;17.63;52.48;98884.58;2098025;91;25978;-80
2022/09/29 08:42:26;;;;;;;2.35;2.15;;;;;;;18.26;51.68;98884.03;2126395;89;25345;-80
2022/09/29 08:46:06;;;;;;;2.00;1.90;;;;;;;19.18;51.40;98893.33;2134411;91;25843;-80
2022/09/29 08:49:56;;;;;;;1.12;1.10;;;;;;;21.24;49.52;98897.59;2178382;88;25808;-78
2022/09/29 08:53:30;;;;;;;2.95;1.27;;;;;;;22.07;47.86;98894.74;2200621;89;25724;-81
2022/09/29 08:57:23;;;;;;;1.67;1.42;;;;;;;22.26;46.79;98903.18;2200118;88;26635;-79
2022/09/29 09:01:33;;;;;;;1.80;1.70;;;;;;;21.99;45.98;98914.59;2305324;84;25468;-81
2022/09/29 09:05:21;;;;;;;1.82;1.40;;;;;;;21.67;45.43;98920.45;2295205;84;25696;-78
2022/09/29 09:09:12;;;;;;;3.67;2.10;;;;;;;21.59;45.00;98925.22;2295506;84;25914;-78
2022/09/29 09:13:08;;;;;;;7.95;1.70;;;;;;;21.54;44.72;98927.70;2309440;85;25744;-80
2022/09/29 09:17:14;;;;;;;3.80;1.60;;;;;;;21.51;45.00;98935.31;2358977;79;25453;-74
2022/09/29 09:20:58;;;;;;;2.58;1.40;;;;;;;21.57;44.88;98936.85;2359400;82;25789;-80
2022/09/29 09:25:00;;;;;;;2.22;1.60;;;;;;;21.67;44.98;98929.73;2360038;83;25718;-80
2022/09/29 09:29:00;;;;;;;;;;;;;;;;;;;;;
2022/09/29 09:32:39;;;;;;;2.20;1.80;;;;;;;21.88;44.90;98933.67;2264997;84;26202;-80
2022/09/29 09:36:30;;;;;;;4.28;1.65;;;;;;;21.91;44.78;98934.86;2308921;83;25709;-80
2022/09/29 09:40:19;;;;;;;2.58;1.45;;;;;;;21.79;44.94;98942.03;2332187;82;25730;-79
2022/09/29 09:44:09;;;;;;;2.55;2.35;;;;;;;21.65;45.11;98948.82;2328231;84;25648;-81
2022/09/29 09:47:52;;;;;;;6.45;2.27;;;;;;;21.49;44.99;98949.09;2283426;85;25831;-79
2022/09/29 09:51:37;;;;;;;1.85;1.65;;;;;;;21.02;45.00;98946.66;2306913;83;25835;-83
2022/09/29 09:55:33;;;;;;;3.22;1.80;;;;;;;20.89;45.42;98954.72;2287869;84;25984;-77
2022/09/29 09:59:09;;;;;;;3.72;2.50;;;;;;;20.88;45.58;98963.13;2275824;85;25775;-79
2022/09/29 10:03:09;;;;;;;4.17;1.70;;;;;;;20.78;45.59;98971.05;2285827;86;25860;-78
2022/09/29 10:06:23;;;;;;;2.65;1.40;;;;;;;20.65;45.75;98969.83;2334475;83;26336;-77
2022/09/29 10:09:47;;;;;;;2.27;2.00;;;;;;;20.67;46.06;98974.14;2314787;83;25769;-76
2022/09/29 10:13:20;;;;;;;3.98;2.55;;;;;;;20.64;46.06;98981.34;2325656;82;25720;-78
2022/09/29 10:16:54;;;;;;;2.30;2.20;;;;;;;20.60;46.37;98982.41;2361054;82;25739;-78
2022/09/29 10:20:37;;;;;;;2.55;2.35;;;;;;;20.44;46.58;98988.25;2333083;83;25867;-79
2022/09/29 10:24:06;;;;;;;2.47;2.27;;;;;;;20.32;46.82;98985.20;2346582;82;25632;-78
2022/09/29 10:27:32;;;;;;;3.80;2.40;;;;;;;20.25;47.00;98991.23;2289871;84;25643;-81
2022/09/29 10:34:55;;;;;;;2.15;2.05;;;;;;;19.86;46.91;99001.03;2216931;87;26437;-78
2022/09/29 10:38:47;;;;;;;2.40;2.02;;;;;;;19.72;47.25;98998.03;2219990;87;25977;-81
2022/09/29 10:42:32;;;;;;;2.50;2.30;;;;;;;19.60;47.33;99005.89;2196722;88;25994;-80
2022/09/29 10:45:57;;;;;;;3.52;2.60;;;;;;;19.45;47.94;99013.05;2184271;88;25683;-79
2022/09/29 10:49:31;;;;;;;2.33;2.12;;;;;;;19.43;48.42;99007.80;2284666;86;25883;-79
2022/09/29 10:53:12;;;;;;;3.12;2.83;;;;;;;19.37;48.49;99002.72;2278109;85;25691;-80
2022/09/29 10:56:48;;;;;;;3.90;2.98;;;;;;;19.26;48.68;99011.02;2258300;86;25666;-81
2022/09/29 11:00:41;;;;;;;2.40;2.20;;;;;;;19.22;49.20;99010.72;2259200;86;25813;-79
2022/09/29 11:04:08;;;;;;;4.95;3.05;;;;;;;19.19;49.27;99014.78;2258107;86;25765;-80
2022/09/29 11:07:33;;;;;;;2.95;2.75;;;;;;;19.19;49.58;99016.10;2216208;88;25783;-80
2022/09/29 11:11:15;;;;;;;3.75;3.47;;;;;;;19.22;49.38;99025.71;2184260;88;25840;-80
2022/09/29 11:14:42;;;;;;;4.08;3.77;;;;;;;19.07;48.86;99021.81;2181895;89;25749;-78
2022/09/29 11:18:33;;;;;;;4.55;4.22;;;;;;;18.83;48.45;99031.36;2157595;89;25831;-79
2022/09/29 11:22:35;;;;;;;;;;;;;;;;;;;;;
2022/09/29 11:26:39;;;;;;;;;;;;;;;;;;;;;
2022/09/29 11:30:14;;;;;;;4.35;2.95;;;;;;;18.28;47.84;99038.29;2146141;89;26160;-80
2022/09/29 11:34:30;;;;;;;4.78;3.62;;;;;;;18.34;48.72;99039.44;2064791;93;26459;-81
2022/09/29 11:42:32;;;;;;;3.27;2.98;;;;;;;18.76;49.52;99036.42;2151851;88;25847;-81
2022/09/29 11:46:22;;;;;;;4.10;3.30;;;;;;;18.96;49.78;99034.02;2116033;89;25931;-77
2022/09/29 11:50:13;;;;;;;3.37;3.10;;;;;;;19.05;49.97;99033.73;2089671;92;25797;-81
2022/09/29 11:54:32;;;;;;;3.60;3.30;;;;;;;19.06;50.13;99043.38;2093038;92;25946;-81
2022/09/29 11:58:44;;;;;;;3.12;2.77;;;;;;;19.11;50.22;99037.95;2060391;94;26120;-84
2022/09/29 12:02:25;;;;;;;3.45;3.15;;;;;;;19.20;50.37;99042.05;2074702;93;25790;-89
2022/09/29 12:06:14;;;;;;;5.53;2.65;;;;;;;;;;2127673;90;25949;-78
2022/09/29 12:10:17;;;;;;;4.10;3.17;;;;;;;19.47;50.38;99031.91;2132046;89;25859;-80
2022/09/29 12:14:27;;;;;;;3.55;3.17;;;;;;;19.53;50.24;99032.99;2142727;90;25773;-79
2022/09/29 12:18:25;;;;;;;2.72;2.52;;;;;;;19.67;50.00;99033.00;2143221;90;25750;-80
2022/09/29 12:21:55;;;;;;;3.47;2.42;;;;;;;20.02;49.43;99041.88;2160871;89;25728;-80
2022/09/29 12:25:43;;;;;;;4.12;2.20;;;;;;;20.60;48.77;99048.59;2246786;86;25905;-78
2022/09/29 12:29:34;;;;;;;2.40;1.90;;;;;;;20.79;48.28;99052.69;2254579;86;25827;-80
2022/09/29 12:37:01;;;;;;;2.90;2.70;;;;;;;20.94;46.82;99062.70;2116698;91;25748;-80
2022/09/29 12:41:02;;;;;;;3.02;2.83;;;;;;;20.80;46.26;99067.69;2198001;88;25715;-80
2022/09/29 12:45:06;;;;;;;2.67;2.47;;;;;;;20.62;45.98;99070.56;2082114;93;25997;-82
2022/09/29 12:49:19;;;;;;;2.65;2.45;;;;;;;20.43;45.67;99073.03;2073672;93;25885;-81
2022/09/29 12:53:20;;;;;;;2.85;2.65;;;;;;;20.31;45.62;99075.66;2073743;93;25579;-82
2022/09/29 12:57:07;;;;;;;3.40;3.20;;;;;;;20.23;45.61;99079.91;2071932;94;25779;-82
2022/09/29 13:00:38;;;;;;;3.67;3.37;;;;;;;20.19;45.62;99078.77;2103319;92;26052;-82
2022/09/29 13:04:48;;;;;;;4.40;3.08;;;;;;;20.11;45.65;99075.06;2107619;93;25989;-81
2022/09/29 13:08:52;;;;;;;3.22;3.02;;;;;;;20.10;45.58;99075.12;2032831;96;25754;-81
2022/09/29 13:16:39;;;;;;;2.80;2.60;;;;;;;19.96;45.41;99079.13;1951390;97;25909;-82
2022/09/29 13:20:50;;;;;;;3.05;2.85;;;;;;;19.86;45.36;99071.11;1852608;105;25975;-81
2022/09/29 13:33:40;;;;;;;;;;;;;;;;;;;;;
2022/09/29 13:37:23;;;;;;;2.42;2.33;;;;;;;19.34;45.55;99079.48;1841308;105;26141;-81
2022/09/29 13:41:34;;;;;;;4.08;2.47;;;;;;;19.22;45.65;99086.02;1855068;104;34824;-82
2022/09/29 13:45:26;;;;;;;2.72;2.52;;;;;;;19.14;45.73;99084.09;1911069;101;25939;-81
2022/09/29 13:49:39;;;;;;;;;;;;;;;;;;;;;
2022/09/29 13:53:32;;;;;;;4.03;2.43;;;;;;;18.97;45.90;99084.63;1836139;105;25837;-81
2022/09/29 14:01:10;;;;;;;3.05;2.77;;;;;;;18.79;46.09;99104.52;1871733;104;25888;-83
2022/09/29 14:04:54;;;;;;;2.87;2.67;;;;;;;18.77;46.15;99117.37;1824330;106;25912;-81
2022/09/29 14:08:50;;;;;;;3.45;2.47;;;;;;;18.78;46.67;99127.02;1850352;104;26436;-81
2022/09/29 14:12:48;;;;;;;3.10;2.42;;;;;;;19.08;49.40;99129.19;1890413;101;25803;-81
2022/09/29 14:16:48;;;;;;;2.60;2.40;;;;;;;19.31;49.26;99125.36;1904286;101;26050;-81
2022/09/29 14:20:37;;;;;;;2.55;2.35;;;;;;;19.37;49.35;99130.02;1880834;101;25855;-81
2022/09/29 14:24:44;;;;;;;2.42;2.22;;;;;;;19.46;49.23;99126.63;1865976;100;26957;-82
2022/09/29 14:28:13;;;;;;;4.70;2.45;;;;;;;19.54;49.14;99121.08;1874840;104;26033;-82
2022/09/29 14:35:47;;;;;;;2.80;2.60;;;;;;;19.58;48.92;99121.41;1975770;97;25770;-82
2022/09/29 14:39:24;;;;;;;2.10;2.00;;;;;;;19.54;48.81;99115.36;1937742;99;25870;-81
2022/09/29 14:43:23;;;;;;;2.30;2.20;;;;;;;19.49;48.60;99121.70;1955554;99;25937;-81
2022/09/29 14:52:18;;;;;;;2.72;2.62;;;;;;;19.21;48.14;99131.85;1881875;104;25946;-80
2022/09/29 14:56:00;;;;;;;2.65;2.45;;;;;;;19.01;47.90;99135.57;1879608;103;25829;-81
2022/09/29 15:04:15;;;;;;;2.87;2.62;;;;;;;18.76;47.60;99145.98;1897340;103;25866;-81
2022/09/29 15:07:56;;;;;;;3.15;2.55;;;;;;;18.73;47.54;99150.92;2056434;91;26252;-81
2022/09/29 15:12:22;;;;;;;;;;;;;;;;;;;;;
2022/09/29 15:16:02;;;;;;;2.83;2.52;;;;;;;18.50;47.20;99144.09;2092717;91;25349;-81
2022/09/29 15:25:10;;;;;;;;;;;;;;;;;;;;;
2022/09/29 15:28:36;;;;;;;3.00;2.80;;;;;;;18.06;47.27;99152.78;2028144;95;25786;-81
2022/09/29 15:32:08;;;;;;;2.65;2.45;;;;;;;17.92;47.36;99155.74;2044890;95;25797;-81
2022/09/29 15:35:46;;;;;;;3.05;2.85;;;;;;;17.84;47.45;99157.27;2065140;94;25893;-82
2022/09/29 15:44:21;;;;;;;2.50;2.30;;;;;;;17.68;47.55;99166.00;2037031;95;25840;-80
2022/09/29 15:47:46;;;;;;;3.10;2.90;;;;;;;17.58;47.64;99180.73;2036137;94;25855;-80
2022/09/29 15:51:32;;;;;;;2.50;2.25;;;;;;;17.51;47.72;99186.60;2036938;95;26561;-82
2022/09/29 15:55:15;;;;;;;2.20;2.10;;;;;;;17.43;47.85;99190.74;1960458;97;25751;-81
2022/09/29 15:58:44;;;;;;;3.05;2.35;;;;;;;17.36;47.98;99186.98;1973064;98;26032;-81
2022/09/29 16:02:18;;;;;;;2.12;1.98;;;;;;;17.32;48.23;99188.81;1905790;101;26711;-80
2022/09/29 16:06:24;;;;;;;3.65;2.70;;;;;;;17.27;48.46;99194.63;1910302;97;26125;-80
2022/09/29 16:09:50;;;;;;;2.60;2.40;;;;;;;17.23;48.72;99194.28;2002308;97;26515;-81
2022/09/29 16:13:19;;;;;;;2.72;2.52;;;;;;;17.12;48.87;99193.21;2011683;97;25740;-81
2022/09/29 16:17:15;;;;;;;4.75;2.75;;;;;;;17.07;48.94;99199.02;2003701;95;25467;-83
2022/09/29 16:20:50;;;;;;;5.30;2.98;;;;;;;17.03;48.97;99202.63;1996661;96;25738;-82
2022/09/29 16:24:28;;;;;;;2.80;2.60;;;;;;;16.96;49.02;99208.47;2065706;93;26050;-82
2022/09/29 16:28:32;;;;;;;3.50;2.72;;;;;;;16.90;49.11;99206.41;2084464;90;25727;-81
2022/09/29 16:32:41;;;;;;;3.17;2.98;;;;;;;16.84;49.16;99218.38;2121198;90;25740;-82
2022/09/29 16:36:21;;;;;;;3.10;2.90;;;;;;;16.72;49.24;99228.23;2122063;90;25708;-81
2022/09/29 16:39:56;;;;;;;3.87;3.40;;;;;;;16.63;49.30;99228.86;2088821;92;25703;-80
2022/09/29 16:43:27;;;;;;;4.28;3.98;;;;;;;16.56;49.36;99225.48;2097943;93;25861;-81
2022/09/29 16:47:18;;;;;;;3.90;3.60;;;;;;;16.52;49.39;99235.64;2076841;92;25983;-83
2022/09/29 16:51:12;;;;;;;;;;;;;;;;;;;;;
2022/09/29 16:58:19;;;;;;;4.62;4.22;;;;;;;16.23;49.41;99240.11;2040477;95;25927;-81
2022/09/29 17:01:47;;;;;;;5.25;4.42;;;;;;;16.02;49.47;99247.47;1963827;99;25959;-80
2022/09/29 17:05:20;;;;;;;5.10;4.15;;;;;;;15.89;49.67;99247.25;1952458;96;26561;-80
2022/09/29 17:08:55;;;;;;;4.75;4.15;;;;;;;15.85;49.91;99257.84;2006964;97;25978;-80
2022/09/29 17:12:39;;;;;;;5.40;5.00;;;;;;;15.84;50.04;99251.73;1969385;97;25903;-80
2022/09/29 17:16:10;;;;;;;5.17;4.78;;;;;;;15.80;50.13;99249.59;2004570;96;25838;-80
2022/09/29 17:19:49;;;;;;;10.43;5.65;;;;;;;15.77;50.29;99256.21;2014424;97;25797;-81
2022/09/29 17:23:35;;;;;;;5.20;4.47;;;;;;;15.78;50.29;99253.13;2017976;97;26605;-80
2022/09/29 17:31:14;;;;;;;5.62;5.08;;;;;;;15.51;50.48;99257.02;1904444;102;26605;-82
2022/09/29 17:34:42;;;;;;;5.55;5.05;;;;;;;15.48;50.66;99257.05;1917926;100;25936;-81
2022/09/29 17:38:26;;;;;;;5.12;4.62;;;;;;;15.50;50.87;99256.15;1876529;103;25934;-81
2022/09/29 17:41:50;;;;;;;5.17;4.70;;;;;;;15.53;51.06;99249.54;1916876;98;25915;-79
2022/09/29 17:45:43;;;;;;;5.37;5.00;;;;;;;15.53;51.13;99255.25;1976167;98;25860;-80
2022/09/29 17:49:39;;;;;;;5.83;5.23;;;;;;;15.42;51.24;99258.00;1897443;102;25776;-80
2022/09/29 17:53:03;;;;;;;9.13;6.67;;;;;;;15.40;51.48;99257.62;1935349;101;25878;-82
2022/09/29 17:57:29;;;;;;;5.90;5.40;;;;;;;15.22;51.25;99261.34;1898484;102;25949;-81
2022/09/29 18:01:04;;;;;;;7.15;6.17;;;;;;;15.07;51.74;99271.61;1889184;103;26005;-81
2022/09/29 18:04:49;;;;;;;7.35;5.75;;;;;;;15.10;51.97;99286.00;1869846;103;55881;-83
2022/09/29 18:08:17;;;;;;;6.10;5.60;;;;;;;15.15;52.06;99286.80;1883423;103;25977;-82
2022/09/29 18:11:52;;;;;;;7.65;5.67;;;;;;;15.18;52.14;99285.45;1884515;103;25886;-78
2022/09/29 18:15:18;;;;;;;9.90;6.37;;;;;;;15.19;52.18;99280.66;1905044;102;25852;-82
2022/09/29 18:18:39;;;;;;;6.83;5.33;;;;;;;15.21;52.22;99285.42;1920795;101;26002;-82
2022/09/29 18:22:05;;;;;;;5.75;5.22;;;;;;;15.22;52.24;99287.59;1918606;100;31565;-81
2022/09/29 18:25:48;;;;;;;7.78;5.90;;;;;;;15.18;52.30;99289.39;1908665;102;26009;-80
2022/09/29 18:29:18;;;;;;;6.50;5.75;;;;;;;15.18;52.39;99293.33;1928991;101;25456;-82
2022/09/29 18:32:44;;;;;;;6.25;5.05;;;;;;;15.18;52.39;99293.78;2037079;93;26064;-83
2022/09/29 18:36:08;;;;;;;7.55;5.58;;;;;;;15.17;52.42;99300.79;2112481;91;25419;-82
2022/09/29 18:40:01;;;;;;;5.87;5.03;;;;;;;15.16;52.48;99300.37;2134983;91;26580;-82
2022/09/29 18:47:32;;;;;;;6.12;5.42;;;;;;;15.14;52.58;99306.08;2141191;91;25827;-82
2022/09/29 18:54:54;;;;;;;11.90;6.17;;;;;;;15.11;52.65;99310.91;1934837;100;25932;-81
2022/09/29 18:58:31;;;;;;;;;;;;;;;;;;;;;
2022/09/29 19:02:24;;;;;;;7.35;5.65;;;;;;;15.08;52.69;99314.02;1933967;100;25859;-84